sensor_id;sensor_type;location;lat;lon;timestamp;P1;durP1;ratioP1;P2;durP2;ratioP2
70126;SDS011;57491;42.694;23.314;2024-02-21T00:02:28;7.43;;;5.23;;
70126;SDS011;57491;42.694;23.314;2024-02-21T00:04:56;7.90;;;4.82;;
70126;SDS011;57491;42.694;23.314;2024-02-21T00:07:23;7.70;;;5.20;;
70126;SDS011;57491;42.694;23.314;2024-02-21T00:09:50;7.03;;;5.23;;
70126;SDS011;57491;42.694;23.314;2024-02-21T00:12:17;6.28;;;4.63;;
70126;SDS011;57491;42.694;23.314;2024-02-21T00:14:45;10.20;;;4.97;;
70126;SDS011;57491;42.694;23.314;2024-02-21T00:17:12;7.93;;;5.35;;
70126;SDS011;57491;42.694;23.314;2024-02-21T00:19:41;7.97;;;4.80;;
70126;SDS011;57491;42.694;23.314;2024-02-21T00:22:08;7.88;;;4.43;;
70126;SDS011;57491;42.694;23.314;2024-02-21T00:24:35;7.13;;;4.93;;
70126;SDS011;57491;42.694;23.314;2024-02-21T00:29:31;7.97;;;5.13;;
70126;SDS011;57491;42.694;23.314;2024-02-21T00:31:58;10.30;;;5.53;;
70126;SDS011;57491;42.694;23.314;2024-02-21T00:34:25;9.30;;;5.03;;
70126;SDS011;57491;42.694;23.314;2024-02-21T00:36:54;7.85;;;5.55;;
70126;SDS011;57491;42.694;23.314;2024-02-21T00:39:21;9.27;;;5.10;;
70126;SDS011;57491;42.694;23.314;2024-02-21T00:41:49;8.07;;;5.00;;
70126;SDS011;57491;42.694;23.314;2024-02-21T00:44:16;8.10;;;4.90;;
70126;SDS011;57491;42.694;23.314;2024-02-21T00:46:43;8.43;;;4.75;;
70126;SDS011;57491;42.694;23.314;2024-02-21T00:49:11;8.15;;;5.53;;
70126;SDS011;57491;42.694;23.314;2024-02-21T00:51:39;6.10;;;4.60;;
70126;SDS011;57491;42.694;23.314;2024-02-21T00:54:07;6.78;;;5.32;;
70126;SDS011;57491;42.694;23.314;2024-02-21T00:56:35;6.75;;;4.55;;
70126;SDS011;57491;42.694;23.314;2024-02-21T00:59:02;6.77;;;4.77;;
70126;SDS011;57491;42.694;23.314;2024-02-21T01:01:32;7.35;;;4.88;;
70126;SDS011;57491;42.694;23.314;2024-02-21T01:03:59;6.83;;;4.13;;
70126;SDS011;57491;42.694;23.314;2024-02-21T01:06:26;8.60;;;4.73;;
70126;SDS011;57491;42.694;23.314;2024-02-21T01:08:54;7.73;;;4.73;;
70126;SDS011;57491;42.694;23.314;2024-02-21T01:11:22;5.60;;;4.00;;
70126;SDS011;57491;42.694;23.314;2024-02-21T01:13:50;6.90;;;4.60;;
70126;SDS011;57491;42.694;23.314;2024-02-21T01:16:17;7.35;;;4.50;;
70126;SDS011;57491;42.694;23.314;2024-02-21T01:18:44;7.70;;;4.95;;
70126;SDS011;57491;42.694;23.314;2024-02-21T01:21:12;8.10;;;5.00;;
70126;SDS011;57491;42.694;23.314;2024-02-21T01:23:40;9.10;;;5.28;;
70126;SDS011;57491;42.694;23.314;2024-02-21T01:26:08;6.53;;;4.68;;
70126;SDS011;57491;42.694;23.314;2024-02-21T01:28:39;8.05;;;4.95;;
70126;SDS011;57491;42.694;23.314;2024-02-21T01:31:07;7.30;;;4.43;;
70126;SDS011;57491;42.694;23.314;2024-02-21T01:33:35;5.70;;;4.53;;
70126;SDS011;57491;42.694;23.314;2024-02-21T01:36:04;7.43;;;4.75;;
70126;SDS011;57491;42.694;23.314;2024-02-21T01:38:32;8.90;;;5.50;;
70126;SDS011;57491;42.694;23.314;2024-02-21T01:41:00;8.77;;;5.43;;
70126;SDS011;57491;42.694;23.314;2024-02-21T01:43:27;7.75;;;5.88;;
70126;SDS011;57491;42.694;23.314;2024-02-21T01:45:56;13.33;;;5.73;;
70126;SDS011;57491;42.694;23.314;2024-02-21T01:48:24;10.05;;;4.80;;
70126;SDS011;57491;42.694;23.314;2024-02-21T01:50:53;5.88;;;5.05;;
70126;SDS011;57491;42.694;23.314;2024-02-21T01:53:22;6.47;;;4.85;;
70126;SDS011;57491;42.694;23.314;2024-02-21T01:55:52;6.90;;;4.80;;
70126;SDS011;57491;42.694;23.314;2024-02-21T01:58:19;7.82;;;5.28;;
70126;SDS011;57491;42.694;23.314;2024-02-21T02:00:47;7.28;;;5.07;;
70126;SDS011;57491;42.694;23.314;2024-02-21T02:05:44;8.43;;;5.00;;
70126;SDS011;57491;42.694;23.314;2024-02-21T02:08:11;10.93;;;6.93;;
70126;SDS011;57491;42.694;23.314;2024-02-21T02:10:39;7.38;;;5.00;;
70126;SDS011;57491;42.694;23.314;2024-02-21T02:13:07;7.15;;;5.57;;
70126;SDS011;57491;42.694;23.314;2024-02-21T02:15:38;8.98;;;6.10;;
70126;SDS011;57491;42.694;23.314;2024-02-21T02:18:06;7.68;;;5.47;;
70126;SDS011;57491;42.694;23.314;2024-02-21T02:20:35;10.00;;;5.85;;
70126;SDS011;57491;42.694;23.314;2024-02-21T02:23:04;10.30;;;6.20;;
70126;SDS011;57491;42.694;23.314;2024-02-21T02:25:39;9.82;;;6.70;;
70126;SDS011;57491;42.694;23.314;2024-02-21T02:28:07;10.23;;;5.25;;
70126;SDS011;57491;42.694;23.314;2024-02-21T02:30:34;10.00;;;6.40;;
70126;SDS011;57491;42.694;23.314;2024-02-21T02:33:02;10.65;;;6.50;;
70126;SDS011;57491;42.694;23.314;2024-02-21T02:35:30;13.95;;;6.47;;
70126;SDS011;57491;42.694;23.314;2024-02-21T02:37:58;9.90;;;6.75;;
70126;SDS011;57491;42.694;23.314;2024-02-21T02:40:26;12.43;;;7.22;;
70126;SDS011;57491;42.694;23.314;2024-02-21T02:42:54;10.95;;;6.82;;
70126;SDS011;57491;42.694;23.314;2024-02-21T02:45:22;11.75;;;6.57;;
70126;SDS011;57491;42.694;23.314;2024-02-21T02:47:51;10.43;;;7.03;;
70126;SDS011;57491;42.694;23.314;2024-02-21T02:50:19;10.43;;;7.13;;
70126;SDS011;57491;42.694;23.314;2024-02-21T02:52:47;11.82;;;6.53;;
70126;SDS011;57491;42.694;23.314;2024-02-21T02:55:14;15.02;;;7.97;;
70126;SDS011;57491;42.694;23.314;2024-02-21T02:57:42;10.70;;;7.22;;
70126;SDS011;57491;42.694;23.314;2024-02-21T03:00:12;10.88;;;7.60;;
70126;SDS011;57491;42.694;23.314;2024-02-21T03:02:41;11.52;;;7.22;;
70126;SDS011;57491;42.694;23.314;2024-02-21T03:05:13;11.82;;;7.13;;
70126;SDS011;57491;42.694;23.314;2024-02-21T03:07:41;10.57;;;7.07;;
70126;SDS011;57491;42.694;23.314;2024-02-21T03:10:09;12.13;;;7.28;;
70126;SDS011;57491;42.694;23.314;2024-02-21T03:12:37;12.88;;;7.70;;
70126;SDS011;57491;42.694;23.314;2024-02-21T03:15:05;10.95;;;7.65;;
70126;SDS011;57491;42.694;23.314;2024-02-21T03:17:34;12.32;;;8.13;;
70126;SDS011;57491;42.694;23.314;2024-02-21T03:20:02;14.80;;;7.95;;
70126;SDS011;57491;42.694;23.314;2024-02-21T03:22:31;13.10;;;8.32;;
70126;SDS011;57491;42.694;23.314;2024-02-21T03:27:26;14.73;;;7.93;;
70126;SDS011;57491;42.694;23.314;2024-02-21T03:29:53;14.40;;;8.90;;
70126;SDS011;57491;42.694;23.314;2024-02-21T03:32:21;12.93;;;8.05;;
70126;SDS011;57491;42.694;23.314;2024-02-21T03:34:49;12.90;;;7.97;;
70126;SDS011;57491;42.694;23.314;2024-02-21T03:37:17;13.82;;;7.97;;
70126;SDS011;57491;42.694;23.314;2024-02-21T03:39:44;13.45;;;8.50;;
70126;SDS011;57491;42.694;23.314;2024-02-21T03:42:11;12.60;;;8.40;;
70126;SDS011;57491;42.694;23.314;2024-02-21T03:44:39;12.13;;;7.95;;
70126;SDS011;57491;42.694;23.314;2024-02-21T03:47:06;13.07;;;7.82;;
70126;SDS011;57491;42.694;23.314;2024-02-21T03:49:36;13.35;;;7.90;;
70126;SDS011;57491;42.694;23.314;2024-02-21T03:52:05;11.87;;;7.43;;
70126;SDS011;57491;42.694;23.314;2024-02-21T03:54:33;10.82;;;7.35;;
70126;SDS011;57491;42.694;23.314;2024-02-21T03:57:00;12.33;;;7.90;;
70126;SDS011;57491;42.694;23.314;2024-02-21T03:59:28;13.53;;;8.50;;
70126;SDS011;57491;42.694;23.314;2024-02-21T04:01:55;12.07;;;8.13;;
70126;SDS011;57491;42.694;23.314;2024-02-21T04:04:22;14.02;;;8.32;;
70126;SDS011;57491;42.694;23.314;2024-02-21T04:06:50;11.45;;;7.78;;
70126;SDS011;57491;42.694;23.314;2024-02-21T04:09:19;11.10;;;7.10;;
70126;SDS011;57491;42.694;23.314;2024-02-21T04:11:46;11.60;;;7.85;;
70126;SDS011;57491;42.694;23.314;2024-02-21T04:14:13;12.10;;;7.53;;
70126;SDS011;57491;42.694;23.314;2024-02-21T04:16:41;15.95;;;8.80;;
70126;SDS011;57491;42.694;23.314;2024-02-21T04:19:08;12.70;;;8.80;;
70126;SDS011;57491;42.694;23.314;2024-02-21T04:21:35;13.13;;;7.88;;
70126;SDS011;57491;42.694;23.314;2024-02-21T04:24:03;11.68;;;8.05;;
70126;SDS011;57491;42.694;23.314;2024-02-21T04:28:59;11.98;;;7.72;;
70126;SDS011;57491;42.694;23.314;2024-02-21T04:31:26;12.63;;;8.13;;
70126;SDS011;57491;42.694;23.314;2024-02-21T04:33:54;12.98;;;7.95;;
70126;SDS011;57491;42.694;23.314;2024-02-21T04:36:21;12.80;;;7.90;;
70126;SDS011;57491;42.694;23.314;2024-02-21T04:38:49;14.70;;;8.77;;
70126;SDS011;57491;42.694;23.314;2024-02-21T04:41:16;17.88;;;9.60;;
70126;SDS011;57491;42.694;23.314;2024-02-21T04:43:46;16.02;;;9.65;;
70126;SDS011;57491;42.694;23.314;2024-02-21T04:46:14;14.77;;;9.05;;
70126;SDS011;57491;42.694;23.314;2024-02-21T04:48:42;15.63;;;9.45;;
70126;SDS011;57491;42.694;23.314;2024-02-21T04:51:11;15.65;;;9.38;;
70126;SDS011;57491;42.694;23.314;2024-02-21T04:53:38;15.02;;;9.07;;
70126;SDS011;57491;42.694;23.314;2024-02-21T04:56:06;17.73;;;10.10;;
70126;SDS011;57491;42.694;23.314;2024-02-21T04:58:37;17.35;;;9.63;;
70126;SDS011;57491;42.694;23.314;2024-02-21T05:01:06;12.32;;;8.35;;
70126;SDS011;57491;42.694;23.314;2024-02-21T05:03:34;12.75;;;8.55;;
70126;SDS011;57491;42.694;23.314;2024-02-21T05:06:01;24.55;;;14.57;;
70126;SDS011;57491;42.694;23.314;2024-02-21T05:08:29;18.45;;;12.10;;
70126;SDS011;57491;42.694;23.314;2024-02-21T05:10:56;18.35;;;9.63;;
70126;SDS011;57491;42.694;23.314;2024-02-21T05:13:23;18.53;;;10.30;;
70126;SDS011;57491;42.694;23.314;2024-02-21T05:15:51;17.75;;;10.60;;
70126;SDS011;57491;42.694;23.314;2024-02-21T05:18:20;19.83;;;10.07;;
70126;SDS011;57491;42.694;23.314;2024-02-21T05:20:47;14.57;;;9.23;;
70126;SDS011;57491;42.694;23.314;2024-02-21T05:23:14;17.75;;;9.30;;
70126;SDS011;57491;42.694;23.314;2024-02-21T05:28:10;16.23;;;9.10;;
70126;SDS011;57491;42.694;23.314;2024-02-21T05:30:37;17.88;;;9.77;;
70126;SDS011;57491;42.694;23.314;2024-02-21T05:33:04;22.42;;;10.82;;
70126;SDS011;57491;42.694;23.314;2024-02-21T05:35:34;17.77;;;10.13;;
70126;SDS011;57491;42.694;23.314;2024-02-21T05:38:01;21.60;;;12.32;;
70126;SDS011;57491;42.694;23.314;2024-02-21T05:40:32;16.33;;;9.93;;
70126;SDS011;57491;42.694;23.314;2024-02-21T05:42:59;18.23;;;11.10;;
70126;SDS011;57491;42.694;23.314;2024-02-21T05:45:26;16.75;;;10.93;;
70126;SDS011;57491;42.694;23.314;2024-02-21T05:47:53;15.80;;;10.40;;
70126;SDS011;57491;42.694;23.314;2024-02-21T05:50:22;17.88;;;10.23;;
70126;SDS011;57491;42.694;23.314;2024-02-21T05:52:52;16.67;;;10.13;;
70126;SDS011;57491;42.694;23.314;2024-02-21T05:55:21;21.13;;;11.23;;
70126;SDS011;57491;42.694;23.314;2024-02-21T05:57:48;20.00;;;11.23;;
70126;SDS011;57491;42.694;23.314;2024-02-21T06:00:15;19.33;;;11.13;;
70126;SDS011;57491;42.694;23.314;2024-02-21T06:02:43;18.52;;;11.30;;
70126;SDS011;57491;42.694;23.314;2024-02-21T06:05:10;20.20;;;11.32;;
70126;SDS011;57491;42.694;23.314;2024-02-21T06:07:38;23.33;;;11.60;;
70126;SDS011;57491;42.694;23.314;2024-02-21T06:10:07;22.83;;;11.43;;
70126;SDS011;57491;42.694;23.314;2024-02-21T06:12:35;21.45;;;11.40;;
70126;SDS011;57491;42.694;23.314;2024-02-21T06:15:02;17.03;;;11.47;;
70126;SDS011;57491;42.694;23.314;2024-02-21T06:17:29;19.75;;;11.63;;
70126;SDS011;57491;42.694;23.314;2024-02-21T06:19:57;26.07;;;10.77;;
70126;SDS011;57491;42.694;23.314;2024-02-21T06:22:24;22.80;;;13.02;;
70126;SDS011;57491;42.694;23.314;2024-02-21T06:24:51;20.55;;;11.07;;
70126;SDS011;57491;42.694;23.314;2024-02-21T06:29:49;19.88;;;10.85;;
70126;SDS011;57491;42.694;23.314;2024-02-21T06:32:19;17.50;;;10.70;;
70126;SDS011;57491;42.694;23.314;2024-02-21T06:34:46;24.55;;;12.00;;
70126;SDS011;57491;42.694;23.314;2024-02-21T06:37:13;16.05;;;10.10;;
70126;SDS011;57491;42.694;23.314;2024-02-21T06:39:41;21.02;;;11.20;;
70126;SDS011;57491;42.694;23.314;2024-02-21T06:42:08;21.13;;;12.40;;
70126;SDS011;57491;42.694;23.314;2024-02-21T06:44:37;21.03;;;11.23;;
70126;SDS011;57491;42.694;23.314;2024-02-21T06:47:05;22.08;;;11.88;;
70126;SDS011;57491;42.694;23.314;2024-02-21T06:49:34;16.75;;;10.40;;
70126;SDS011;57491;42.694;23.314;2024-02-21T06:52:02;18.63;;;10.93;;
70126;SDS011;57491;42.694;23.314;2024-02-21T06:54:30;20.67;;;12.15;;
70126;SDS011;57491;42.694;23.314;2024-02-21T06:56:58;16.80;;;11.10;;
70126;SDS011;57491;42.694;23.314;2024-02-21T06:59:26;20.50;;;12.02;;
70126;SDS011;57491;42.694;23.314;2024-02-21T07:01:54;16.38;;;10.13;;
70126;SDS011;57491;42.694;23.314;2024-02-21T07:04:22;19.40;;;10.85;;
70126;SDS011;57491;42.694;23.314;2024-02-21T07:06:49;18.67;;;10.77;;
70126;SDS011;57491;42.694;23.314;2024-02-21T07:09:16;19.92;;;11.00;;
70126;SDS011;57491;42.694;23.314;2024-02-21T07:11:44;20.33;;;12.10;;
70126;SDS011;57491;42.694;23.314;2024-02-21T07:14:11;22.30;;;11.73;;
70126;SDS011;57491;42.694;23.314;2024-02-21T07:16:38;18.20;;;11.55;;
70126;SDS011;57491;42.694;23.314;2024-02-21T07:19:07;22.83;;;10.90;;
70126;SDS011;57491;42.694;23.314;2024-02-21T07:21:34;18.88;;;12.95;;
70126;SDS011;57491;42.694;23.314;2024-02-21T07:24:04;19.98;;;12.05;;
70126;SDS011;57491;42.694;23.314;2024-02-21T07:26:32;19.23;;;10.73;;
70126;SDS011;57491;42.694;23.314;2024-02-21T07:28:59;21.70;;;11.93;;
70126;SDS011;57491;42.694;23.314;2024-02-21T07:31:26;20.42;;;11.73;;
70126;SDS011;57491;42.694;23.314;2024-02-21T07:33:54;23.60;;;12.52;;
70126;SDS011;57491;42.694;23.314;2024-02-21T07:36:28;23.58;;;12.60;;
70126;SDS011;57491;42.694;23.314;2024-02-21T07:38:56;22.38;;;11.07;;
70126;SDS011;57491;42.694;23.314;2024-02-21T07:41:24;22.83;;;12.37;;
70126;SDS011;57491;42.694;23.314;2024-02-21T07:43:52;23.45;;;13.23;;
70126;SDS011;57491;42.694;23.314;2024-02-21T07:46:19;19.05;;;11.50;;
70126;SDS011;57491;42.694;23.314;2024-02-21T07:48:46;20.23;;;11.32;;
70126;SDS011;57491;42.694;23.314;2024-02-21T07:51:15;21.10;;;11.30;;
70126;SDS011;57491;42.694;23.314;2024-02-21T07:53:45;21.33;;;12.43;;
70126;SDS011;57491;42.694;23.314;2024-02-21T07:56:13;21.92;;;11.82;;
70126;SDS011;57491;42.694;23.314;2024-02-21T07:58:40;18.88;;;11.32;;
70126;SDS011;57491;42.694;23.314;2024-02-21T08:01:08;19.52;;;11.40;;
70126;SDS011;57491;42.694;23.314;2024-02-21T08:03:35;23.75;;;13.25;;
70126;SDS011;57491;42.694;23.314;2024-02-21T08:06:03;21.50;;;12.10;;
70126;SDS011;57491;42.694;23.314;2024-02-21T08:10:59;16.08;;;10.35;;
70126;SDS011;57491;42.694;23.314;2024-02-21T08:13:26;20.55;;;11.65;;
70126;SDS011;57491;42.694;23.314;2024-02-21T08:15:54;18.85;;;11.25;;
70126;SDS011;57491;42.694;23.314;2024-02-21T08:18:22;22.42;;;11.73;;
70126;SDS011;57491;42.694;23.314;2024-02-21T08:20:49;17.40;;;11.07;;
70126;SDS011;57491;42.694;23.314;2024-02-21T08:23:17;22.02;;;11.65;;
70126;SDS011;57491;42.694;23.314;2024-02-21T08:25:45;20.98;;;11.80;;
70126;SDS011;57491;42.694;23.314;2024-02-21T08:28:16;20.33;;;12.48;;
70126;SDS011;57491;42.694;23.314;2024-02-21T08:30:43;20.08;;;11.48;;
70126;SDS011;57491;42.694;23.314;2024-02-21T08:33:13;20.90;;;12.63;;
70126;SDS011;57491;42.694;23.314;2024-02-21T08:35:41;17.13;;;11.82;;
70126;SDS011;57491;42.694;23.314;2024-02-21T08:38:08;25.33;;;13.68;;
70126;SDS011;57491;42.694;23.314;2024-02-21T08:40:35;17.42;;;11.90;;
70126;SDS011;57491;42.694;23.314;2024-02-21T08:45:32;21.55;;;12.35;;
70126;SDS011;57491;42.694;23.314;2024-02-21T08:47:59;19.83;;;13.05;;
70126;SDS011;57491;42.694;23.314;2024-02-21T08:50:26;21.25;;;13.23;;
70126;SDS011;57491;42.694;23.314;2024-02-21T08:52:53;34.28;;;17.17;;
70126;SDS011;57491;42.694;23.314;2024-02-21T08:55:21;21.00;;;12.90;;
70126;SDS011;57491;42.694;23.314;2024-02-21T08:57:49;21.30;;;11.18;;
70126;SDS011;57491;42.694;23.314;2024-02-21T09:00:17;15.63;;;10.70;;
70126;SDS011;57491;42.694;23.314;2024-02-21T09:02:50;17.30;;;11.82;;
70126;SDS011;57491;42.694;23.314;2024-02-21T09:05:20;18.55;;;11.68;;
70126;SDS011;57491;42.694;23.314;2024-02-21T09:07:47;26.77;;;12.73;;
70126;SDS011;57491;42.694;23.314;2024-02-21T09:10:15;21.73;;;13.65;;
70126;SDS011;57491;42.694;23.314;2024-02-21T09:12:42;17.33;;;11.02;;
70126;SDS011;57491;42.694;23.314;2024-02-21T09:15:09;17.35;;;11.55;;
70126;SDS011;57491;42.694;23.314;2024-02-21T09:17:37;19.50;;;11.68;;
70126;SDS011;57491;42.694;23.314;2024-02-21T09:20:07;18.48;;;11.40;;
70126;SDS011;57491;42.694;23.314;2024-02-21T09:22:35;20.02;;;12.48;;
70126;SDS011;57491;42.694;23.314;2024-02-21T09:25:05;25.52;;;14.45;;
70126;SDS011;57491;42.694;23.314;2024-02-21T09:27:37;21.13;;;12.35;;
70126;SDS011;57491;42.694;23.314;2024-02-21T09:30:05;16.75;;;12.13;;
70126;SDS011;57491;42.694;23.314;2024-02-21T09:32:33;17.30;;;11.52;;
70126;SDS011;57491;42.694;23.314;2024-02-21T09:35:00;16.08;;;10.98;;
70126;SDS011;57491;42.694;23.314;2024-02-21T09:37:29;13.93;;;11.02;;
70126;SDS011;57491;42.694;23.314;2024-02-21T09:39:56;17.10;;;11.77;;
70126;SDS011;57491;42.694;23.314;2024-02-21T09:42:27;14.93;;;11.73;;
70126;SDS011;57491;42.694;23.314;2024-02-21T09:45:03;14.15;;;10.40;;
70126;SDS011;57491;42.694;23.314;2024-02-21T09:47:39;15.50;;;10.75;;
70126;SDS011;57491;42.694;23.314;2024-02-21T09:50:13;14.48;;;10.73;;
70126;SDS011;57491;42.694;23.314;2024-02-21T09:52:45;14.02;;;10.73;;
70126;SDS011;57491;42.694;23.314;2024-02-21T09:55:15;14.27;;;10.73;;
70126;SDS011;57491;42.694;23.314;2024-02-21T09:57:44;14.25;;;9.90;;
70126;SDS011;57491;42.694;23.314;2024-02-21T10:00:13;14.52;;;10.50;;
70126;SDS011;57491;42.694;23.314;2024-02-21T10:02:47;11.80;;;9.30;;
70126;SDS011;57491;42.694;23.314;2024-02-21T10:05:15;13.20;;;10.05;;
70126;SDS011;57491;42.694;23.314;2024-02-21T10:07:43;14.50;;;10.25;;
70126;SDS011;57491;42.694;23.314;2024-02-21T10:12:47;14.60;;;10.00;;
70126;SDS011;57491;42.694;23.314;2024-02-21T10:15:19;12.45;;;9.27;;
70126;SDS011;57491;42.694;23.314;2024-02-21T10:17:48;11.70;;;9.63;;
70126;SDS011;57491;42.694;23.314;2024-02-21T10:20:15;18.33;;;10.30;;
70126;SDS011;57491;42.694;23.314;2024-02-21T10:22:43;12.75;;;9.00;;
70126;SDS011;57491;42.694;23.314;2024-02-21T10:25:13;12.63;;;9.00;;
70126;SDS011;57491;42.694;23.314;2024-02-21T10:27:41;13.57;;;8.27;;
70126;SDS011;57491;42.694;23.314;2024-02-21T10:30:12;15.32;;;8.52;;
70126;SDS011;57491;42.694;23.314;2024-02-21T10:32:48;11.00;;;8.45;;
70126;SDS011;57491;42.694;23.314;2024-02-21T10:35:25;11.85;;;8.15;;
70126;SDS011;57491;42.694;23.314;2024-02-21T10:37:53;13.73;;;8.15;;
70126;SDS011;57491;42.694;23.314;2024-02-21T10:42:51;11.45;;;7.85;;
70126;SDS011;57491;42.694;23.314;2024-02-21T10:45:23;10.93;;;8.25;;
70126;SDS011;57491;42.694;23.314;2024-02-21T10:47:58;19.40;;;10.82;;
70126;SDS011;57491;42.694;23.314;2024-02-21T10:50:32;13.57;;;7.35;;
70126;SDS011;57491;42.694;23.314;2024-02-21T10:53:14;15.35;;;9.40;;
70126;SDS011;57491;42.694;23.314;2024-02-21T10:55:54;9.30;;;6.75;;
70126;SDS011;57491;42.694;23.314;2024-02-21T10:58:26;7.82;;;6.68;;
70126;SDS011;57491;42.694;23.314;2024-02-21T11:00:56;7.53;;;6.40;;
70126;SDS011;57491;42.694;23.314;2024-02-21T11:03:24;10.10;;;6.28;;
70126;SDS011;57491;42.694;23.314;2024-02-21T11:05:51;7.95;;;5.88;;
70126;SDS011;57491;42.694;23.314;2024-02-21T11:08:19;7.95;;;5.53;;
70126;SDS011;57491;42.694;23.314;2024-02-21T11:10:47;6.35;;;5.25;;
70126;SDS011;57491;42.694;23.314;2024-02-21T11:13:15;5.28;;;4.70;;
70126;SDS011;57491;42.694;23.314;2024-02-21T11:15:43;7.80;;;5.30;;
70126;SDS011;57491;42.694;23.314;2024-02-21T11:18:22;5.93;;;5.22;;
70126;SDS011;57491;42.694;23.314;2024-02-21T11:20:50;5.55;;;4.70;;
70126;SDS011;57491;42.694;23.314;2024-02-21T11:23:24;5.22;;;4.45;;
70126;SDS011;57491;42.694;23.314;2024-02-21T11:25:52;6.45;;;5.28;;
70126;SDS011;57491;42.694;23.314;2024-02-21T11:28:26;8.15;;;5.05;;
70126;SDS011;57491;42.694;23.314;2024-02-21T11:30:53;6.65;;;4.75;;
70126;SDS011;57491;42.694;23.314;2024-02-21T11:33:34;8.57;;;4.80;;
70126;SDS011;57491;42.694;23.314;2024-02-21T11:38:30;6.05;;;4.57;;
70126;SDS011;57491;42.694;23.314;2024-02-21T11:40:57;8.75;;;5.38;;
70126;SDS011;57491;42.694;23.314;2024-02-21T11:43:26;8.43;;;5.47;;
70126;SDS011;57491;42.694;23.314;2024-02-21T11:45:58;5.90;;;5.07;;
70126;SDS011;57491;42.694;23.314;2024-02-21T11:48:26;7.68;;;5.25;;
70126;SDS011;57491;42.694;23.314;2024-02-21T11:50:54;6.72;;;5.20;;
70126;SDS011;57491;42.694;23.314;2024-02-21T11:53:21;13.20;;;5.50;;
70126;SDS011;57491;42.694;23.314;2024-02-21T11:55:49;7.47;;;5.13;;
70126;SDS011;57491;42.694;23.314;2024-02-21T11:58:17;6.95;;;5.03;;
70126;SDS011;57491;42.694;23.314;2024-02-21T12:00:46;10.75;;;5.40;;
70126;SDS011;57491;42.694;23.314;2024-02-21T12:03:13;9.60;;;5.75;;
70126;SDS011;57491;42.694;23.314;2024-02-21T12:08:12;8.90;;;5.72;;
70126;SDS011;57491;42.694;23.314;2024-02-21T12:10:41;9.18;;;5.32;;
70126;SDS011;57491;42.694;23.314;2024-02-21T12:13:10;8.88;;;6.03;;
70126;SDS011;57491;42.694;23.314;2024-02-21T12:15:38;6.72;;;5.50;;
70126;SDS011;57491;42.694;23.314;2024-02-21T12:18:08;8.13;;;5.43;;
70126;SDS011;57491;42.694;23.314;2024-02-21T12:20:37;11.70;;;6.00;;
70126;SDS011;57491;42.694;23.314;2024-02-21T12:23:09;8.15;;;6.05;;
70126;SDS011;57491;42.694;23.314;2024-02-21T12:25:39;12.45;;;6.53;;
70126;SDS011;57491;42.694;23.314;2024-02-21T12:28:10;10.13;;;5.70;;
70126;SDS011;57491;42.694;23.314;2024-02-21T12:30:37;7.90;;;5.32;;
70126;SDS011;57491;42.694;23.314;2024-02-21T12:33:06;6.25;;;4.65;;
70126;SDS011;57491;42.694;23.314;2024-02-21T12:35:42;8.88;;;5.10;;
70126;SDS011;57491;42.694;23.314;2024-02-21T12:38:09;8.68;;;5.10;;
70126;SDS011;57491;42.694;23.314;2024-02-21T12:40:54;7.82;;;5.20;;
70126;SDS011;57491;42.694;23.314;2024-02-21T12:43:22;11.95;;;5.25;;
70126;SDS011;57491;42.694;23.314;2024-02-21T12:45:50;10.07;;;6.13;;
70126;SDS011;57491;42.694;23.314;2024-02-21T12:48:19;9.15;;;5.88;;
70126;SDS011;57491;42.694;23.314;2024-02-21T12:50:48;8.40;;;5.97;;
70126;SDS011;57491;42.694;23.314;2024-02-21T12:53:17;11.68;;;5.97;;
70126;SDS011;57491;42.694;23.314;2024-02-21T12:55:46;11.48;;;6.95;;
70126;SDS011;57491;42.694;23.314;2024-02-21T12:58:14;11.05;;;7.45;;
70126;SDS011;57491;42.694;23.314;2024-02-21T13:00:42;11.45;;;7.90;;
70126;SDS011;57491;42.694;23.314;2024-02-21T13:03:10;12.20;;;7.18;;
70126;SDS011;57491;42.694;23.314;2024-02-21T13:08:06;11.18;;;6.85;;
70126;SDS011;57491;42.694;23.314;2024-02-21T13:10:34;9.85;;;6.57;;
70126;SDS011;57491;42.694;23.314;2024-02-21T13:13:01;11.15;;;6.97;;
70126;SDS011;57491;42.694;23.314;2024-02-21T13:15:29;10.45;;;7.15;;
70126;SDS011;57491;42.694;23.314;2024-02-21T13:17:56;11.05;;;6.85;;
70126;SDS011;57491;42.694;23.314;2024-02-21T13:20:24;12.35;;;9.45;;
70126;SDS011;57491;42.694;23.314;2024-02-21T13:22:54;9.93;;;7.07;;
70126;SDS011;57491;42.694;23.314;2024-02-21T13:25:22;11.43;;;7.00;;
70126;SDS011;57491;42.694;23.314;2024-02-21T13:27:49;10.77;;;6.63;;
70126;SDS011;57491;42.694;23.314;2024-02-21T13:30:16;8.10;;;6.03;;
70126;SDS011;57491;42.694;23.314;2024-02-21T13:35:13;8.27;;;6.20;;
70126;SDS011;57491;42.694;23.314;2024-02-21T13:40:10;11.85;;;7.22;;
70126;SDS011;57491;42.694;23.314;2024-02-21T13:42:39;10.13;;;6.15;;
70126;SDS011;57491;42.694;23.314;2024-02-21T13:47:34;8.60;;;5.93;;
70126;SDS011;57491;42.694;23.314;2024-02-21T13:50:04;10.75;;;6.28;;
70126;SDS011;57491;42.694;23.314;2024-02-21T13:52:34;9.98;;;6.25;;
70126;SDS011;57491;42.694;23.314;2024-02-21T13:55:02;17.15;;;8.95;;
70126;SDS011;57491;42.694;23.314;2024-02-21T13:57:31;9.73;;;6.75;;
70126;SDS011;57491;42.694;23.314;2024-02-21T13:59:58;10.45;;;6.60;;
70126;SDS011;57491;42.694;23.314;2024-02-21T14:02:26;11.52;;;6.30;;
70126;SDS011;57491;42.694;23.314;2024-02-21T14:04:53;8.77;;;6.55;;
70126;SDS011;57491;42.694;23.314;2024-02-21T14:07:20;10.80;;;6.13;;
70126;SDS011;57491;42.694;23.314;2024-02-21T14:09:48;9.20;;;6.65;;
70126;SDS011;57491;42.694;23.314;2024-02-21T14:12:15;11.02;;;6.00;;
70126;SDS011;57491;42.694;23.314;2024-02-21T14:14:47;9.93;;;5.85;;
70126;SDS011;57491;42.694;23.314;2024-02-21T14:17:15;7.95;;;5.65;;
70126;SDS011;57491;42.694;23.314;2024-02-21T14:19:43;7.53;;;5.57;;
70126;SDS011;57491;42.694;23.314;2024-02-21T14:22:10;9.30;;;5.47;;
70126;SDS011;57491;42.694;23.314;2024-02-21T14:24:40;8.32;;;6.20;;
70126;SDS011;57491;42.694;23.314;2024-02-21T14:27:08;11.57;;;6.15;;
70126;SDS011;57491;42.694;23.314;2024-02-21T14:29:36;12.73;;;7.72;;
70126;SDS011;57491;42.694;23.314;2024-02-21T14:32:05;12.85;;;6.47;;
70126;SDS011;57491;42.694;23.314;2024-02-21T14:34:32;10.65;;;6.68;;
70126;SDS011;57491;42.694;23.314;2024-02-21T14:37:00;10.20;;;6.72;;
70126;SDS011;57491;42.694;23.314;2024-02-21T14:39:27;8.23;;;5.88;;
70126;SDS011;57491;42.694;23.314;2024-02-21T14:41:55;9.07;;;5.75;;
70126;SDS011;57491;42.694;23.314;2024-02-21T14:44:22;8.93;;;6.70;;
70126;SDS011;57491;42.694;23.314;2024-02-21T14:46:49;9.95;;;6.03;;
70126;SDS011;57491;42.694;23.314;2024-02-21T14:49:19;9.95;;;6.20;;
70126;SDS011;57491;42.694;23.314;2024-02-21T14:51:47;10.80;;;6.80;;
70126;SDS011;57491;42.694;23.314;2024-02-21T14:54:14;9.18;;;5.80;;
70126;SDS011;57491;42.694;23.314;2024-02-21T14:56:41;9.07;;;6.53;;
70126;SDS011;57491;42.694;23.314;2024-02-21T14:59:09;11.95;;;7.60;;
70126;SDS011;57491;42.694;23.314;2024-02-21T15:01:36;10.57;;;6.85;;
70126;SDS011;57491;42.694;23.314;2024-02-21T15:04:04;9.20;;;6.22;;
70126;SDS011;57491;42.694;23.314;2024-02-21T15:06:34;11.55;;;7.03;;
70126;SDS011;57491;42.694;23.314;2024-02-21T15:09:05;13.77;;;6.82;;